Alto, MI

12:40 PM EST on January 31, 2015 (GMT -0500)
Thornapple/Irving Township | Change Station
CLOSE
Current Station
Personal Weather Station
Location: Middleville, MI
Elevation: 804 ft
Nearby Weather Stations
Active Advisory: Winter Weather Advisory

Elev 804 ft 42.76 °N, 85.43 °W | Updated 6 seconds ago

Overcast
Overcast
31.5 °F
Feels Like 32 °F
N
0.0
Wind Variable Wind from WSW
Gusts 0.0 mph

Today
High -- | Low -- °F
--% Chance of Precip.
Yesterday
High -- | Low -- °F
Precip. -- in
7:57 AM 5:53 PM
Waxing Gibbous, 90% visible
Pressure 30.23 in
Visibility 9.0 miles
Clouds Overcast 4000 ft
Windchill 32 °F
Dew Point 24 °F
Humidity 74%
Rainfall 0.00 in
Snow Depth Not available.
UV 1 out of 12
Pollen .10 out of 12
Air Quality Not available.
Flu Activity Not available.
METAR KGRR 311653Z 21010KT 9SM OVC040 M02/M05 A3019 RMK AO2 SLP236 T10171050

More Conditions Fewer Conditions

Pressure 30.23 in
Visibility 9.0 miles
Clouds Overcast 4000 ft
Windchill 32 °F
Dew Point 24 °F
Humidity 74%
Rainfall 0.00 in
Snow Depth Not available.
UV 1 out of 12
Pollen .10 out of 12
Air Quality Not available.
Flu Activity Not available.
METAR KGRR 311653Z 21010KT 9SM OVC040 M02/M05 A3019 RMK AO2 SLP236 T10171050

More Conditions Fewer Conditions

10-Day Weather Forecast

Almanac

Astronomy

Jan. 31, 2015 Rise Set
Actual Time
Civil Twilight
Nautical Twilight
Astronomical Twilight
Moon
Length of Visible Light
Length of Day
Tomorrow will be .
, % of the Moon is Illuminated

Today's Extremes

State Highs State Lows

Community

WunderPhotos

Upload Photos

1,792,136 photos uploaded!

WunderBlogs® & News

Nearby

Air Quality

  Air Quality AQ Index Pollutant
Not available.

Snow Depth

Station Depth Elevation

Earthquake Activity

City Distance Mag. Time & Date
Minimum magnitude displayed is 2.5.

Coastal Water Temperatures

Place Temperature

Nearby Weather Stations